createdAt,value
2019-01-28T00:02:03.572Z,8.07
2019-01-28T00:04:33.275Z,10.13
2019-01-28T00:07:02.942Z,8.67
2019-01-28T00:09:36.134Z,9.37
2019-01-28T00:12:05.928Z,7.40
2019-01-28T00:14:37.951Z,8.20
2019-01-28T00:17:10.519Z,7.97
2019-01-28T00:19:42.534Z,9.60
2019-01-28T00:22:12.206Z,7.53
2019-01-28T00:24:53.371Z,7.47
2019-01-28T00:27:22.834Z,9.33
2019-01-28T00:29:52.771Z,9.50
2019-01-28T00:32:22.475Z,9.83
2019-01-28T00:34:52.163Z,8.30
2019-01-28T00:37:21.159Z,10.03
2019-01-28T00:39:55.404Z,7.47
2019-01-28T00:42:25.478Z,8.47
2019-01-28T00:44:58.215Z,8.40
2019-01-28T00:47:27.930Z,10.43
2019-01-28T00:50:00.355Z,7.63
2019-01-28T00:52:29.357Z,4.93
2019-01-28T00:55:02.493Z,5.37
2019-01-28T00:57:32.461Z,6.00
2019-01-28T01:00:07.884Z,4.37
2019-01-28T01:02:36.910Z,4.50
2019-01-28T01:05:11.833Z,3.50
2019-01-28T01:07:40.824Z,5.20
2019-01-28T01:10:13.908Z,4.47
2019-01-28T01:12:43.634Z,5.30
2019-01-28T01:15:16.711Z,4.17
2019-01-28T01:17:46.438Z,4.40
2019-01-28T01:20:18.435Z,5.97
2019-01-28T01:22:48.125Z,3.00
2019-01-28T01:25:24.007Z,4.23
2019-01-28T01:27:53.947Z,5.50
2019-01-28T01:33:03.383Z,4.60
2019-01-28T01:35:33.135Z,5.70
2019-01-28T01:38:02.226Z,5.33
2019-01-28T01:40:32.230Z,6.77
2019-01-28T01:43:02.820Z,5.00
2019-01-28T01:45:33.410Z,6.17
2019-01-28T01:48:02.815Z,5.00
2019-01-28T01:50:35.346Z,6.60
2019-01-28T01:53:05.153Z,5.17
2019-01-28T01:55:38.673Z,5.17
2019-01-28T01:58:08.341Z,4.97
2019-01-28T02:00:41.190Z,5.10
2019-01-28T02:03:10.473Z,6.47
2019-01-28T02:05:45.999Z,6.40
2019-01-28T02:08:15.698Z,4.73
2019-01-28T02:10:48.691Z,7.97
2019-01-28T02:13:18.379Z,5.87
2019-01-28T02:15:50.884Z,6.67
2019-01-28T02:18:20.828Z,6.97
2019-01-28T02:20:53.562Z,7.80
2019-01-28T02:23:22.636Z,6.87
2019-01-28T02:25:58.407Z,7.87
2019-01-28T02:28:28.115Z,6.13
2019-01-28T02:31:00.672Z,5.83
2019-01-28T02:33:30.349Z,6.30
2019-01-28T02:36:04.072Z,7.83
2019-01-28T02:38:34.036Z,7.17
2019-01-28T02:41:06.523Z,6.97
2019-01-28T02:43:35.608Z,5.47
2019-01-28T02:46:12.517Z,6.67
2019-01-28T02:48:41.563Z,7.03
2019-01-28T02:51:14.331Z,7.77
2019-01-28T02:53:44.003Z,7.43
2019-01-28T02:56:16.553Z,8.13
2019-01-28T02:58:45.560Z,6.47
2019-01-28T03:01:18.459Z,7.60
2019-01-28T03:03:48.435Z,6.83
2019-01-28T03:06:20.466Z,5.67
2019-01-28T03:08:50.154Z,5.77
2019-01-28T03:11:23.010Z,8.87
2019-01-28T03:13:52.664Z,9.40
2019-01-28T03:16:24.714Z,8.07
2019-01-28T03:18:54.683Z,8.03
2019-01-28T03:21:28.304Z,7.37
2019-01-28T03:23:58.010Z,6.60
2019-01-28T03:26:30.636Z,7.40
2019-01-28T03:29:00.942Z,6.13
2019-01-28T03:31:32.725Z,5.77
2019-01-28T03:34:01.760Z,6.93
2019-01-28T03:36:35.356Z,5.63
2019-01-28T03:39:07.518Z,4.70
2019-01-28T03:41:40.103Z,5.03
2019-01-28T03:44:09.110Z,5.50
2019-01-28T03:46:44.759Z,4.53
2019-01-28T03:49:14.723Z,6.47
2019-01-28T03:51:47.640Z,4.03
2019-01-28T03:54:16.751Z,2.30
2019-01-28T03:56:49.417Z,3.30
2019-01-28T03:59:19.184Z,4.43
2019-01-28T04:01:51.978Z,2.87
2019-01-28T04:04:20.988Z,3.43
2019-01-28T04:06:54.046Z,3.40
2019-01-28T04:09:24.024Z,5.23
2019-01-28T04:12:01.607Z,2.93
2019-01-28T04:14:31.315Z,4.20
2019-01-28T04:17:02.386Z,5.60
2019-01-28T04:19:32.059Z,4.53
2019-01-28T04:22:04.788Z,3.17
2019-01-28T04:24:34.455Z,2.60
2019-01-28T04:27:10.272Z,3.77
2019-01-28T04:29:40.382Z,2.73
2019-01-28T04:32:10.719Z,3.53
2019-01-28T04:34:40.435Z,4.67
2019-01-28T04:37:17.530Z,2.27
2019-01-28T04:39:47.533Z,2.40
2019-01-28T04:42:17.467Z,3.17
2019-01-28T04:44:47.136Z,3.80
2019-01-28T04:47:19.835Z,3.03
2019-01-28T04:49:48.851Z,3.60
2019-01-28T04:52:23.091Z,3.47
2019-01-28T04:54:53.029Z,4.03
2019-01-28T04:57:24.862Z,3.20
2019-01-28T04:59:53.894Z,2.97
2019-01-28T05:02:29.546Z,2.57
2019-01-28T05:04:58.579Z,3.33
2019-01-28T05:07:31.030Z,2.57
2019-01-28T05:10:01.854Z,3.50
2019-01-28T05:12:32.500Z,3.20
2019-01-28T05:15:01.955Z,3.40
2019-01-28T05:17:35.992Z,3.87
2019-01-28T05:20:07.428Z,3.93
2019-01-28T05:22:40.373Z,2.33
2019-01-28T05:25:11.219Z,4.43
2019-01-28T05:27:42.194Z,3.10
2019-01-28T05:30:15.114Z,2.90
2019-01-28T05:32:44.856Z,2.97
2019-01-28T05:35:14.971Z,2.87
2019-01-28T05:37:46.468Z,2.23
2019-01-28T05:40:16.526Z,2.97
2019-01-28T05:42:50.638Z,2.97
2019-01-28T05:45:21.224Z,2.50
2019-01-28T05:47:53.724Z,3.17
2019-01-28T05:50:23.518Z,2.77
2019-01-28T05:52:56.135Z,3.40
2019-01-28T05:55:25.838Z,3.33
2019-01-28T05:58:02.844Z,3.40
2019-01-28T06:00:50.765Z,2.80
2019-01-28T06:03:20.524Z,2.97
2019-01-28T06:05:50.224Z,2.87
2019-01-28T06:08:20.401Z,4.30
2019-01-28T06:10:50.230Z,3.00
2019-01-28T06:13:20.145Z,3.83
2019-01-28T06:15:50.469Z,3.83
2019-01-28T06:18:19.471Z,3.33
2019-01-28T06:20:48.519Z,5.07
2019-01-28T06:23:18.554Z,4.83
2019-01-28T06:25:48.283Z,3.73
2019-01-28T06:28:18.190Z,3.20
2019-01-28T06:30:47.823Z,6.00
2019-01-28T06:33:23.556Z,3.30
2019-01-28T06:35:53.233Z,3.67
2019-01-28T06:38:22.691Z,3.30
2019-01-28T06:40:52.479Z,4.07
2019-01-28T06:43:25.124Z,3.93
2019-01-28T06:45:55.074Z,3.27
2019-01-28T06:48:27.822Z,2.80
2019-01-28T06:50:58.008Z,3.50
2019-01-28T06:53:30.248Z,3.03
2019-01-28T06:56:00.226Z,4.50
2019-01-28T06:58:33.028Z,3.60
2019-01-28T07:01:02.245Z,2.70
2019-01-28T07:03:36.136Z,3.63
2019-01-28T07:06:05.923Z,3.03
2019-01-28T07:08:37.297Z,3.23
2019-01-28T07:11:07.306Z,4.70
2019-01-28T07:13:40.871Z,2.60
2019-01-28T07:16:10.595Z,4.23
2019-01-28T07:18:43.671Z,3.00
2019-01-28T07:21:13.387Z,3.43
2019-01-28T07:23:47.068Z,3.10
2019-01-28T07:26:16.157Z,2.90
2019-01-28T07:28:49.634Z,4.03
2019-01-28T07:31:19.066Z,3.90
2019-01-28T07:33:53.115Z,3.33
2019-01-28T07:36:22.164Z,3.70
2019-01-28T07:38:58.247Z,4.03
2019-01-28T07:41:27.275Z,3.83
2019-01-28T07:44:00.256Z,3.80
2019-01-28T07:46:29.960Z,3.60
2019-01-28T07:49:02.572Z,5.90
2019-01-28T07:51:32.404Z,3.23
2019-01-28T07:54:04.871Z,2.93
2019-01-28T07:56:34.281Z,4.00
2019-01-28T07:59:12.750Z,3.30
2019-01-28T08:01:41.758Z,3.40
2019-01-28T08:04:14.662Z,4.27
2019-01-28T08:06:44.657Z,3.80
2019-01-28T08:11:47.510Z,2.83
2019-01-28T08:14:20.287Z,3.33
2019-01-28T08:16:59.128Z,3.53
2019-01-28T08:19:37.875Z,4.00
2019-01-28T08:22:08.012Z,3.00
2019-01-28T08:24:37.694Z,3.07
2019-01-28T08:27:07.387Z,4.53
2019-01-28T08:29:36.883Z,4.00
2019-01-28T08:32:06.661Z,3.67
2019-01-28T08:34:36.352Z,4.37
2019-01-28T08:37:05.831Z,5.13
2019-01-28T08:39:35.967Z,4.03
2019-01-28T08:42:05.666Z,4.50
2019-01-28T08:44:35.139Z,5.50
2019-01-28T08:47:04.466Z,4.60
2019-01-28T08:49:37.636Z,3.93
2019-01-28T08:52:07.662Z,4.30
2019-01-28T08:54:40.363Z,3.47
2019-01-28T08:57:09.502Z,3.57
2019-01-28T08:59:45.326Z,3.67
2019-01-28T09:02:16.437Z,3.33
2019-01-28T09:04:48.931Z,4.03
2019-01-28T09:07:18.687Z,3.40
2019-01-28T09:09:49.511Z,2.90
2019-01-28T09:12:19.816Z,4.03
2019-01-28T09:14:55.871Z,4.00
2019-01-28T09:17:25.290Z,4.10
2019-01-28T09:19:54.609Z,4.47
2019-01-28T09:22:23.884Z,5.10
2019-01-28T09:25:01.797Z,3.70
2019-01-28T09:27:31.586Z,2.77
2019-01-28T09:30:02.068Z,3.83
2019-01-28T09:32:32.205Z,3.97
2019-01-28T09:35:05.852Z,2.97
2019-01-28T09:37:38.021Z,4.43
2019-01-28T09:40:09.304Z,5.60
2019-01-28T09:42:39.016Z,7.43
2019-01-28T09:45:15.706Z,5.73
2019-01-28T09:47:45.425Z,5.50
2019-01-28T09:50:14.875Z,5.20
2019-01-28T09:52:44.530Z,7.30
2019-01-28T09:55:18.924Z,6.53
2019-01-28T09:57:48.675Z,7.57
2019-01-28T10:00:28.297Z,7.10
2019-01-28T10:02:58.462Z,7.53
2019-01-28T10:05:28.321Z,6.03
2019-01-28T10:07:58.227Z,5.97
2019-01-28T10:10:28.089Z,7.43
2019-01-28T10:12:57.991Z,8.83
2019-01-28T10:15:28.923Z,10.13
2019-01-28T10:17:58.971Z,10.23
2019-01-28T10:20:33.832Z,7.10
2019-01-28T10:23:05.551Z,8.47
2019-01-28T10:25:35.476Z,10.20
2019-01-28T10:28:05.667Z,4.63
2019-01-28T10:30:38.257Z,4.33
2019-01-28T10:33:08.947Z,5.47
2019-01-28T10:35:38.723Z,4.50
2019-01-28T10:38:08.428Z,3.60
2019-01-28T10:40:41.421Z,6.37
2019-01-28T10:43:10.508Z,5.90
2019-01-28T10:45:49.371Z,4.10
2019-01-28T10:48:18.383Z,3.67
2019-01-28T10:50:51.304Z,5.87
2019-01-28T10:53:21.830Z,4.57
2019-01-28T10:55:51.228Z,8.83
2019-01-28T10:58:20.981Z,4.97
2019-01-28T11:00:53.900Z,4.53
2019-01-28T11:03:25.642Z,6.73
2019-01-28T11:05:57.287Z,4.20
2019-01-28T11:08:27.016Z,6.07
2019-01-28T11:11:01.628Z,6.87
2019-01-28T11:13:30.693Z,5.90
2019-01-28T11:16:04.842Z,5.93
2019-01-28T11:18:34.895Z,6.20
2019-01-28T11:21:07.609Z,7.83
2019-01-28T11:23:37.563Z,10.00
2019-01-28T11:26:11.766Z,12.73
2019-01-28T11:28:40.828Z,10.23
2019-01-28T11:31:14.666Z,6.77
2019-01-28T11:33:44.926Z,5.10
2019-01-28T11:36:17.741Z,9.47
2019-01-28T11:38:47.076Z,6.83
2019-01-28T11:41:18.914Z,6.30
2019-01-28T11:43:48.843Z,11.30
2019-01-28T11:46:22.626Z,8.87
2019-01-28T11:48:51.649Z,7.77
2019-01-28T11:51:27.837Z,12.40
2019-01-28T11:53:58.060Z,8.73
2019-01-28T11:56:27.886Z,8.23
2019-01-28T11:58:58.616Z,8.70
2019-01-28T12:01:32.143Z,11.23
2019-01-28T12:04:01.924Z,8.40
2019-01-28T12:06:31.740Z,11.40
2019-01-28T12:09:02.290Z,9.73
2019-01-28T12:11:35.156Z,7.93
2019-01-28T12:14:05.197Z,7.57
2019-01-28T12:16:37.799Z,8.93
2019-01-28T12:19:14.043Z,9.63
2019-01-28T12:21:41.525Z,6.53
2019-01-28T12:24:11.504Z,6.43
2019-01-28T12:26:43.631Z,5.53
2019-01-28T12:29:13.359Z,8.27
2019-01-28T12:31:46.752Z,7.63
2019-01-28T12:34:16.473Z,7.40
2019-01-28T12:36:52.738Z,11.37
2019-01-28T12:39:22.071Z,8.30
2019-01-28T12:41:54.740Z,8.77
2019-01-28T12:44:24.532Z,6.90
2019-01-28T12:47:01.427Z,5.70
2019-01-28T12:49:31.127Z,8.30
2019-01-28T12:52:02.693Z,6.63
2019-01-28T12:54:32.086Z,5.07
2019-01-28T12:57:04.337Z,8.23
2019-01-28T12:59:34.021Z,8.17
2019-01-28T13:02:06.706Z,7.20
2019-01-28T13:04:42.598Z,6.93
2019-01-28T13:07:12.404Z,9.40
2019-01-28T13:09:41.712Z,9.80
2019-01-28T13:12:14.470Z,11.50
2019-01-28T13:14:43.900Z,11.80
2019-01-28T13:17:16.963Z,4.87
2019-01-28T13:19:47.304Z,14.23
2019-01-28T13:22:21.295Z,8.67
2019-01-28T13:24:51.428Z,12.00
2019-01-28T13:27:21.739Z,13.10
2019-01-28T13:29:51.544Z,9.30
2019-01-28T13:32:25.392Z,8.20
2019-01-28T13:34:54.967Z,14.50
2019-01-28T13:37:27.750Z,11.27
2019-01-28T13:39:57.623Z,15.60
2019-01-28T13:42:30.454Z,12.80
2019-01-28T13:45:02.153Z,13.63
2019-01-28T13:47:32.230Z,15.00
2019-01-28T13:50:04.888Z,9.03
2019-01-28T13:52:33.947Z,12.73
2019-01-28T13:55:03.620Z,11.30
2019-01-28T13:57:37.340Z,7.93
2019-01-28T14:00:10.353Z,12.17
2019-01-28T14:02:41.367Z,7.50
2019-01-28T14:05:10.758Z,14.23
2019-01-28T14:07:43.871Z,7.70
2019-01-28T14:10:14.726Z,13.93
2019-01-28T14:12:47.733Z,10.53
2019-01-28T14:15:21.235Z,9.13
2019-01-28T14:17:52.377Z,10.87
2019-01-28T14:20:22.710Z,12.67
2019-01-28T14:22:51.925Z,13.33
2019-01-28T14:25:22.338Z,7.43
2019-01-28T14:27:54.828Z,13.30
2019-01-28T14:30:31.417Z,10.43
2019-01-28T14:33:02.707Z,8.40
2019-01-28T14:35:32.147Z,9.30
2019-01-28T14:38:05.358Z,6.37
2019-01-28T14:40:35.559Z,8.97
2019-01-28T14:43:06.870Z,10.40
2019-01-28T14:45:36.624Z,6.60
2019-01-28T14:48:11.635Z,8.17
2019-01-28T14:50:41.733Z,9.67
2019-01-28T14:55:40.008Z,8.27
2019-01-28T14:58:16.754Z,7.30
2019-01-28T15:00:46.712Z,11.47
2019-01-28T15:03:18.320Z,10.60
2019-01-28T15:05:47.365Z,8.67
2019-01-28T15:08:20.391Z,6.43
2019-01-28T15:10:50.115Z,4.47
2019-01-28T15:13:23.816Z,8.23
2019-01-28T15:15:53.577Z,10.70
2019-01-28T15:18:26.139Z,9.93
2019-01-28T15:21:02.351Z,4.47
2019-01-28T15:23:31.791Z,6.07
2019-01-28T15:26:01.768Z,7.47
2019-01-28T15:28:32.159Z,7.13
2019-01-28T15:31:01.753Z,7.20
2019-01-28T15:33:34.377Z,4.37
2019-01-28T15:36:04.586Z,8.77
2019-01-28T15:38:37.299Z,4.77
2019-01-28T15:41:07.127Z,6.23
2019-01-28T15:43:39.835Z,3.73
2019-01-28T15:46:08.990Z,5.20
2019-01-28T15:48:42.380Z,13.83
2019-01-28T15:51:11.695Z,6.30
2019-01-28T15:56:20.275Z,9.13
2019-01-28T15:58:50.919Z,3.83
2019-01-28T16:01:21.145Z,6.47
2019-01-28T16:03:53.358Z,7.30
2019-01-28T16:06:22.519Z,8.90
2019-01-28T16:08:55.201Z,7.47
2019-01-28T16:11:25.288Z,8.53
2019-01-28T16:14:00.147Z,5.07
2019-01-28T16:16:30.091Z,5.07
2019-01-28T16:19:03.944Z,8.57
2019-01-28T16:21:35.479Z,5.80
2019-01-28T16:24:05.972Z,5.77
2019-01-28T16:26:35.695Z,5.47
2019-01-28T16:29:09.956Z,11.27
2019-01-28T16:31:39.679Z,6.37
2019-01-28T16:34:12.518Z,8.63
2019-01-28T16:36:42.508Z,8.13
2019-01-28T16:39:15.339Z,4.93
2019-01-28T16:41:44.557Z,7.03
2019-01-28T16:44:17.632Z,10.03
2019-01-28T16:46:46.671Z,7.57
2019-01-28T16:49:19.783Z,4.80
2019-01-28T16:51:49.566Z,12.80
2019-01-28T16:54:21.922Z,14.77
2019-01-28T16:56:51.996Z,7.93
2019-01-28T16:59:23.806Z,11.83
2019-01-28T17:01:53.591Z,15.90
2019-01-28T17:04:29.642Z,11.77
2019-01-28T17:06:59.360Z,12.97
2019-01-28T17:09:28.371Z,9.67
2019-01-28T17:11:57.416Z,5.13
2019-01-28T17:14:36.121Z,11.80
2019-01-28T17:17:07.112Z,6.37
2019-01-28T17:19:36.875Z,5.83
2019-01-28T17:22:06.660Z,4.03
2019-01-28T17:24:39.159Z,6.03
2019-01-28T17:27:08.852Z,6.30
2019-01-28T17:29:46.647Z,6.80
2019-01-28T17:32:15.654Z,8.43
2019-01-28T17:34:45.351Z,5.43
2019-01-28T17:37:14.658Z,7.17
2019-01-28T17:39:47.434Z,5.73
2019-01-28T17:42:17.203Z,7.80
2019-01-28T17:44:49.882Z,7.07
2019-01-28T17:47:19.562Z,7.70
2019-01-28T17:49:52.303Z,4.40
2019-01-28T17:52:22.300Z,5.70
2019-01-28T17:54:55.039Z,6.50
2019-01-28T17:57:24.719Z,4.53
2019-01-28T18:00:02.412Z,8.10
2019-01-28T18:02:32.123Z,4.80
2019-01-28T18:05:05.976Z,2.30
2019-01-28T18:07:36.840Z,1.77
2019-01-28T18:10:11.859Z,2.97
2019-01-28T18:12:41.611Z,4.13
2019-01-28T18:15:15.048Z,3.33
2019-01-28T18:20:28.207Z,2.37
2019-01-28T18:22:58.015Z,1.50
2019-01-28T18:25:29.159Z,4.67
2019-01-28T18:27:58.602Z,2.37
2019-01-28T18:30:35.740Z,2.17
2019-01-28T18:33:05.015Z,2.77
2019-01-28T18:35:34.971Z,3.63
2019-01-28T18:38:06.659Z,3.77
2019-01-28T18:40:35.727Z,4.53
2019-01-28T18:43:05.025Z,4.73
2019-01-28T18:45:34.039Z,7.13
2019-01-28T18:48:04.686Z,5.67
2019-01-28T18:50:34.407Z,10.63
2019-01-28T18:53:05.302Z,5.70
2019-01-28T18:55:35.317Z,7.07
2019-01-28T18:58:14.236Z,10.60
2019-01-28T19:00:45.910Z,7.37
2019-01-28T19:03:15.603Z,9.47
2019-01-28T19:05:58.967Z,8.60
2019-01-28T19:08:39.931Z,7.83
2019-01-28T19:11:14.559Z,12.43
2019-01-28T19:14:15.574Z,10.57
2019-01-28T19:17:10.171Z,10.00
2019-01-28T19:19:58.423Z,7.20
2019-01-28T19:22:28.433Z,11.13
2019-01-28T19:24:58.404Z,6.97
2019-01-28T19:27:28.097Z,9.30
2019-01-28T19:29:57.839Z,12.23
2019-01-28T19:32:27.868Z,8.43
2019-01-28T19:34:57.522Z,11.67
2019-01-28T19:37:27.253Z,10.37
2019-01-28T19:39:59.423Z,8.57
2019-01-28T19:42:29.119Z,9.67
2019-01-28T19:45:03.345Z,12.40
2019-01-28T19:47:32.714Z,8.83
2019-01-28T19:50:05.561Z,8.37
2019-01-28T19:52:35.284Z,12.20
2019-01-28T19:55:09.729Z,11.90
2019-01-28T19:57:39.057Z,11.60
2019-01-28T20:00:15.620Z,14.63
2019-01-28T20:02:48.661Z,10.60
2019-01-28T20:07:55.750Z,13.40
2019-01-28T20:10:26.311Z,9.27
2019-01-28T20:12:56.123Z,6.63
2019-01-28T20:15:26.511Z,7.90
2019-01-28T20:17:56.232Z,7.07
2019-01-28T20:20:25.250Z,10.57
2019-01-28T20:22:54.611Z,11.73
2019-01-28T20:25:25.009Z,15.47
2019-01-28T20:27:54.710Z,10.03
2019-01-28T20:30:28.166Z,20.30
2019-01-28T20:32:57.859Z,11.57
2019-01-28T20:35:30.236Z,9.57
2019-01-28T20:38:00.227Z,14.30
2019-01-28T20:40:33.147Z,10.53
2019-01-28T20:43:02.911Z,9.70
2019-01-28T20:45:45.025Z,10.70
2019-01-28T20:48:09.480Z,10.13
2019-01-28T20:50:39.225Z,14.97
2019-01-28T20:53:08.269Z,13.57
2019-01-28T20:55:41.819Z,9.80
2019-01-28T20:58:11.823Z,12.33
2019-01-28T21:00:44.282Z,10.27
2019-01-28T21:03:14.009Z,12.43
2019-01-28T21:05:47.693Z,10.90
2019-01-28T21:08:17.373Z,11.07
2019-01-28T21:10:49.963Z,16.57
2019-01-28T21:13:19.473Z,19.57
2019-01-28T21:15:55.905Z,15.60
2019-01-28T21:18:25.607Z,17.93
2019-01-28T21:20:58.291Z,11.77
2019-01-28T21:23:28.011Z,13.40
2019-01-28T21:25:59.515Z,19.40
2019-01-28T21:28:28.523Z,10.83
2019-01-28T21:31:02.865Z,16.63
2019-01-28T21:33:32.139Z,14.20
2019-01-28T21:36:27.963Z,12.57
2019-01-28T21:38:58.298Z,18.53
2019-01-28T21:41:27.979Z,18.47
2019-01-28T21:43:57.684Z,23.87
2019-01-28T21:46:27.657Z,45.57
2019-01-28T21:48:57.339Z,34.23
2019-01-28T21:51:27.076Z,28.33
2019-01-28T21:53:57.055Z,39.93
2019-01-28T21:56:26.887Z,30.53
2019-01-28T21:58:55.875Z,32.53
2019-01-28T22:01:25.166Z,23.73
2019-01-28T22:03:54.225Z,20.07
2019-01-28T22:06:23.932Z,15.40
2019-01-28T22:08:53.896Z,20.90
2019-01-28T22:11:24.815Z,16.13
2019-01-28T22:13:55.520Z,15.90
2019-01-28T22:16:28.066Z,18.60
2019-01-28T22:18:57.751Z,13.37
2019-01-28T22:21:33.827Z,12.83
2019-01-28T22:24:04.978Z,17.23
2019-01-28T22:26:34.667Z,15.73
2019-01-28T22:29:05.579Z,13.13
2019-01-28T22:31:38.599Z,22.77
2019-01-28T22:34:08.280Z,16.97
2019-01-28T22:36:41.931Z,24.37
2019-01-28T22:39:12.027Z,25.40
2019-01-28T22:41:44.820Z,21.53
2019-01-28T22:44:13.825Z,22.43
2019-01-28T22:46:46.886Z,23.07
2019-01-28T22:49:16.686Z,25.63
2019-01-28T22:51:48.779Z,28.20
2019-01-28T22:54:18.579Z,25.00
2019-01-28T22:56:53.062Z,25.00
2019-01-28T22:59:23.040Z,21.20
2019-01-28T23:01:57.141Z,21.37
2019-01-28T23:04:26.856Z,31.07
2019-01-28T23:06:59.331Z,25.63
2019-01-28T23:09:28.471Z,26.60
2019-01-28T23:12:01.925Z,25.00
2019-01-28T23:14:31.917Z,25.73
2019-01-28T23:17:05.083Z,25.80
2019-01-28T23:19:35.176Z,24.57
2019-01-28T23:22:16.032Z,25.57
2019-01-28T23:24:40.299Z,24.80
2019-01-28T23:27:13.179Z,29.27
2019-01-28T23:29:42.198Z,29.23
2019-01-28T23:32:15.079Z,25.03
2019-01-28T23:34:44.751Z,28.90
2019-01-28T23:37:16.506Z,26.37
2019-01-28T23:39:46.466Z,22.10
2019-01-28T23:42:20.903Z,24.87
2019-01-28T23:44:50.611Z,22.53
2019-01-28T23:47:23.647Z,26.47
2019-01-28T23:49:53.319Z,24.93
2019-01-28T23:52:25.863Z,23.53
2019-01-28T23:54:55.134Z,24.70
2019-01-28T23:57:27.939Z,23.23
2019-01-28T23:59:57.680Z,28.70
